createdAt,value
2018-06-04T00:15:27.889Z,17.90
2018-06-04T00:20:32.056Z,17.70
2018-06-04T00:30:40.014Z,17.50
2018-06-04T00:56:16.875Z,17.20
2018-06-04T01:01:20.962Z,17.20
2018-06-04T01:06:25.071Z,17.00
2018-06-04T01:11:29.157Z,17.00
2018-06-04T01:16:33.246Z,16.90
2018-06-04T01:26:41.264Z,16.70
2018-06-04T01:41:53.027Z,16.60
2018-06-04T01:46:57.114Z,16.60
2018-06-04T01:52:01.219Z,16.60
2018-06-04T02:12:16.879Z,16.50
2018-06-04T02:17:20.961Z,16.40
2018-06-04T02:22:25.051Z,16.30
2018-06-04T02:42:41.438Z,16.20
2018-06-04T02:47:45.538Z,16.10
2018-06-04T02:57:53.478Z,16.00
2018-06-04T03:08:01.455Z,16.10
2018-06-04T03:13:05.631Z,16.10
2018-06-04T03:43:28.970Z,15.80
2018-06-04T03:48:33.063Z,15.70
2018-06-04T03:53:37.155Z,15.80
2018-06-04T04:08:48.903Z,15.80
2018-06-04T04:13:52.963Z,15.80
2018-06-04T04:54:23.869Z,16.30
2018-06-04T05:45:05.875Z,19.20
2018-06-04T06:25:36.637Z,23.20
2018-06-04T06:50:56.192Z,23.80
2018-06-04T06:56:00.266Z,24.50
2018-06-04T07:01:04.387Z,25.20
2018-06-04T07:26:23.930Z,26.10
2018-06-04T07:41:35.723Z,27.10
2018-06-04T07:51:50.200Z,27.10
2018-06-04T08:27:17.735Z,30.30
2018-06-04T08:37:25.879Z,30.10
2018-06-04T09:12:52.865Z,31.60
2018-06-04T09:17:56.937Z,31.30
2018-06-04T09:23:01.020Z,32.00
2018-06-04T09:28:05.131Z,31.90
2018-06-04T09:43:16.970Z,31.60
2018-06-04T09:48:21.087Z,31.60
2018-06-04T10:33:55.831Z,29.00
2018-06-04T10:38:59.939Z,29.00
2018-06-04T10:44:04.322Z,28.40
2018-06-04T10:54:12.822Z,28.20
2018-06-04T11:09:24.703Z,28.00
2018-06-04T11:24:36.475Z,28.00
2018-06-04T11:39:48.772Z,28.00
2018-06-04T11:55:00.577Z,28.20
2018-06-04T12:00:04.668Z,28.20
2018-06-04T12:05:10.995Z,28.10
2018-06-04T12:20:22.816Z,27.70
2018-06-04T12:35:35.194Z,27.40
2018-06-04T12:50:46.956Z,27.50
2018-06-04T13:00:54.843Z,27.60
2018-06-04T13:11:02.971Z,27.60
2018-06-04T13:31:19.582Z,27.60
2018-06-04T13:41:27.492Z,27.50
2018-06-04T14:16:55.211Z,27.70
2018-06-04T14:21:59.303Z,27.60
2018-06-04T14:32:07.489Z,27.50
2018-06-04T14:52:23.245Z,27.00
2018-06-04T14:57:27.430Z,27.00
2018-06-04T15:12:39.294Z,27.40
2018-06-04T15:17:43.588Z,27.60
2018-06-04T15:22:47.667Z,27.60
2018-06-04T15:32:55.609Z,27.60
2018-06-04T15:37:59.994Z,27.50
2018-06-04T16:13:27.590Z,27.30
2018-06-04T16:18:31.702Z,27.30
2018-06-04T16:43:51.613Z,27.10
2018-06-04T17:29:27.084Z,26.50
2018-06-04T17:39:35.221Z,26.20
2018-06-04T17:44:39.298Z,26.10
2018-06-04T18:09:58.926Z,25.60
2018-06-04T18:20:07.015Z,25.50
2018-06-04T19:00:38.415Z,24.50
2018-06-04T19:15:50.269Z,24.20
2018-06-04T19:25:58.316Z,24.00
2018-06-04T19:56:22.738Z,23.30
2018-06-04T20:01:26.868Z,23.10
2018-06-04T20:21:42.599Z,22.80
2018-06-04T20:31:50.857Z,22.60
2018-06-04T20:47:02.720Z,22.30
2018-06-04T20:57:10.855Z,22.10
2018-06-04T21:17:26.493Z,21.80
2018-06-04T21:22:30.650Z,21.80
2018-06-04T21:27:34.746Z,21.60
2018-06-04T21:32:38.816Z,21.40
2018-06-04T21:42:47.541Z,21.30
2018-06-04T21:57:59.515Z,21.10
2018-06-04T22:08:07.472Z,21.00
2018-06-04T23:19:02.166Z,20.00
2018-06-04T23:24:06.252Z,20.00
2018-06-04T23:29:10.375Z,19.90
2018-06-04T23:54:30.975Z,19.30
